createdAt,value
2019-03-10T00:00:52.014Z,99794.42
2019-03-10T00:03:25.313Z,99822.92
2019-03-10T00:05:57.006Z,99819.67
2019-03-10T00:08:29.698Z,99839.13
2019-03-10T00:11:01.546Z,99822.16
2019-03-10T00:13:33.221Z,99844.08
2019-03-10T00:16:04.974Z,99845.98
2019-03-10T00:18:36.700Z,99853.03
2019-03-10T00:21:08.476Z,99868.02
2019-03-10T00:23:40.102Z,99893.16
2019-03-10T00:26:11.692Z,99898.02
2019-03-10T00:28:43.345Z,99894.63
2019-03-10T00:31:14.969Z,99890.52
2019-03-10T00:33:46.602Z,99906.62
2019-03-10T00:36:18.182Z,99916.22
2019-03-10T00:39:05.985Z,99927.34
2019-03-10T00:42:21.320Z,99961.66
2019-03-10T00:45:16.374Z,99938.30
2019-03-10T00:48:24.782Z,99940.02
2019-03-10T00:51:24.694Z,99939.53
2019-03-10T00:53:56.276Z,99977.42
2019-03-10T00:56:27.864Z,99952.28
2019-03-10T00:58:59.472Z,99971.25
2019-03-10T01:01:31.140Z,99945.16
2019-03-10T01:04:02.815Z,99961.81
2019-03-10T01:06:34.569Z,99961.23
2019-03-10T01:09:06.271Z,99965.42
2019-03-10T01:11:39.054Z,99970.37
2019-03-10T01:14:10.649Z,99970.18
2019-03-10T01:16:42.254Z,99982.75
2019-03-10T01:19:13.959Z,99978.48
2019-03-10T01:21:45.739Z,99976.97
2019-03-10T01:24:17.621Z,99986.37
2019-03-10T01:26:49.212Z,99990.67
2019-03-10T01:29:20.895Z,99984.47
2019-03-10T01:32:36.865Z,99990.30
2019-03-10T01:35:14.225Z,99987.33
2019-03-10T01:37:45.963Z,99988.01
2019-03-10T01:40:17.738Z,99987.63
2019-03-10T01:42:49.325Z,99998.10
2019-03-10T01:45:20.925Z,99987.52
2019-03-10T01:47:52.513Z,99988.20
2019-03-10T01:50:24.103Z,99981.91
2019-03-10T01:52:55.687Z,99982.11
2019-03-10T01:55:27.270Z,99974.56
2019-03-10T01:57:58.947Z,99987.33
2019-03-10T02:00:30.547Z,99986.76
2019-03-10T02:03:02.190Z,99986.22
2019-03-10T02:05:33.845Z,99981.08
2019-03-10T02:08:05.503Z,99988.31
2019-03-10T02:10:37.157Z,99987.55
2019-03-10T02:13:09.815Z,99987.17
2019-03-10T02:15:41.455Z,99990.22
2019-03-10T02:18:13.105Z,100001.34
2019-03-10T02:20:44.876Z,99991.44
2019-03-10T02:23:16.558Z,99991.36
2019-03-10T02:25:48.216Z,100013.44
2019-03-10T02:28:19.824Z,100016.29
2019-03-10T02:30:51.422Z,100005.81
2019-03-10T02:33:23.321Z,100004.10
2019-03-10T02:35:54.907Z,99997.06
2019-03-10T02:38:26.528Z,100002.77
2019-03-10T02:40:58.185Z,99997.62
2019-03-10T02:43:29.789Z,100008.02
2019-03-10T02:46:01.465Z,99999.91
2019-03-10T02:48:33.986Z,99995.73
2019-03-10T02:51:05.574Z,99995.25
2019-03-10T02:53:37.249Z,99991.07
2019-03-10T02:56:08.850Z,99985.55
2019-03-10T02:58:40.467Z,99978.58
2019-03-10T03:01:12.051Z,99973.36
2019-03-10T03:03:43.918Z,99976.69
2019-03-10T03:06:15.505Z,99987.13
2019-03-10T03:08:47.108Z,99998.63
2019-03-10T03:11:18.825Z,100005.66
2019-03-10T03:13:50.418Z,99994.55
2019-03-10T03:16:22.019Z,99994.55
2019-03-10T03:18:53.793Z,99987.35
2019-03-10T03:21:25.430Z,99988.47
2019-03-10T03:23:57.057Z,99990.78
2019-03-10T03:26:28.648Z,99991.90
2019-03-10T03:29:00.247Z,100010.09
2019-03-10T03:31:31.836Z,99994.88
2019-03-10T03:34:03.468Z,99994.97
2019-03-10T03:36:37.032Z,100005.81
2019-03-10T03:39:26.544Z,100006.87
2019-03-10T03:41:58.146Z,100008.95
2019-03-10T03:44:29.738Z,100017.13
2019-03-10T03:47:01.329Z,100015.48
2019-03-10T03:49:32.997Z,100031.28
2019-03-10T03:52:04.634Z,100023.30
2019-03-10T03:54:36.270Z,100033.39
2019-03-10T03:57:07.862Z,100035.28
2019-03-10T03:59:39.555Z,100022.34
2019-03-10T04:02:36.221Z,100024.55
2019-03-10T04:05:08.338Z,100027.29
2019-03-10T04:07:39.933Z,100007.80
2019-03-10T04:10:11.506Z,100013.59
2019-03-10T04:12:43.097Z,100003.33
2019-03-10T04:15:14.972Z,99991.73
2019-03-10T04:17:46.554Z,99995.72
2019-03-10T04:20:18.207Z,99992.19
2019-03-10T04:22:49.783Z,99979.93
2019-03-10T04:25:21.386Z,99981.90
2019-03-10T04:27:52.958Z,99966.23
2019-03-10T04:30:24.631Z,99957.47
2019-03-10T04:32:56.293Z,99956.52
2019-03-10T04:35:27.902Z,99951.09
2019-03-10T04:37:59.466Z,99950.70
2019-03-10T04:40:31.211Z,99954.58
2019-03-10T04:43:02.892Z,99954.97
2019-03-10T04:45:34.472Z,99960.47
2019-03-10T04:48:06.064Z,99958.73
2019-03-10T04:50:37.645Z,99971.73
2019-03-10T04:53:09.217Z,99962.80
2019-03-10T04:56:02.476Z,99978.59
2019-03-10T04:58:35.638Z,99972.40
2019-03-10T05:01:07.239Z,99975.63
2019-03-10T05:03:38.912Z,99967.74
2019-03-10T05:06:10.578Z,99971.55
2019-03-10T05:08:42.162Z,99973.83
2019-03-10T05:11:13.911Z,99979.05
2019-03-10T05:13:46.458Z,99982.09
2019-03-10T05:16:18.109Z,99988.30
2019-03-10T05:18:49.781Z,99980.38
2019-03-10T05:21:21.382Z,99987.21
2019-03-10T05:23:53.104Z,99981.99
2019-03-10T05:26:24.677Z,99985.32
2019-03-10T05:28:56.417Z,99988.16
2019-03-10T05:31:27.994Z,99994.11
2019-03-10T05:33:59.659Z,99988.13
2019-03-10T05:36:32.195Z,99990.44
2019-03-10T05:39:05.634Z,99993.45
2019-03-10T05:41:37.293Z,99989.66
2019-03-10T05:44:08.870Z,99990.64
2019-03-10T05:46:40.438Z,99994.07
2019-03-10T05:49:12.049Z,99984.97
2019-03-10T05:51:44.008Z,99984.02
2019-03-10T05:54:16.703Z,99980.80
2019-03-10T05:56:48.296Z,99969.79
2019-03-10T05:59:19.869Z,99967.79
2019-03-10T06:01:51.466Z,99969.50
2019-03-10T06:04:23.042Z,99972.95
2019-03-10T06:06:54.629Z,99971.31
2019-03-10T06:09:26.219Z,99971.83
2019-03-10T06:11:57.817Z,99980.55
2019-03-10T06:14:29.485Z,99969.83
2019-03-10T06:17:01.097Z,99976.86
2019-03-10T06:19:32.748Z,99975.17
2019-03-10T06:22:04.337Z,99976.31
2019-03-10T06:24:35.936Z,99976.97
2019-03-10T06:27:07.629Z,99976.04
2019-03-10T06:29:39.222Z,99970.03
2019-03-10T06:32:10.842Z,99971.27
2019-03-10T06:34:43.404Z,99976.98
2019-03-10T06:37:15.014Z,99975.92
2019-03-10T06:39:46.614Z,99974.03
2019-03-10T06:42:18.217Z,99967.37
2019-03-10T06:44:49.807Z,99977.54
2019-03-10T06:47:21.411Z,99978.37
2019-03-10T06:49:53.031Z,99975.70
2019-03-10T06:52:24.631Z,99977.34
2019-03-10T06:54:56.205Z,99980.64
2019-03-10T06:57:27.818Z,99975.89
2019-03-10T06:59:59.406Z,99978.92
2019-03-10T07:02:31.007Z,99977.59
2019-03-10T07:05:02.660Z,99989.41
2019-03-10T07:07:35.315Z,99977.28
2019-03-10T07:10:07.748Z,99983.94
2019-03-10T07:12:39.411Z,99977.59
2019-03-10T07:15:11.595Z,99981.34
2019-03-10T07:17:43.264Z,99973.89
2019-03-10T07:20:16.589Z,99987.02
2019-03-10T07:22:48.191Z,99974.83
2019-03-10T07:25:19.849Z,99966.77
2019-03-10T07:28:10.447Z,99973.30
2019-03-10T07:31:01.003Z,99957.61
2019-03-10T07:33:51.582Z,99947.78
2019-03-10T07:36:40.955Z,99964.05
2019-03-10T07:39:31.534Z,99952.02
2019-03-10T07:42:23.758Z,99958.86
2019-03-10T07:45:29.253Z,99958.73
2019-03-10T07:48:10.196Z,99957.15
2019-03-10T07:50:51.061Z,99961.99
2019-03-10T07:53:40.188Z,99965.44
2019-03-10T07:56:20.385Z,99954.72
2019-03-10T07:59:19.731Z,99936.77
2019-03-10T08:02:08.943Z,99948.55
2019-03-10T08:04:47.606Z,99950.05
2019-03-10T08:07:53.005Z,99940.32
2019-03-10T08:10:35.936Z,99932.89
2019-03-10T08:13:26.540Z,99943.66
2019-03-10T08:16:20.268Z,99931.05
2019-03-10T08:19:13.799Z,99922.52
2019-03-10T08:22:04.379Z,99913.44
2019-03-10T08:25:06.788Z,99902.59
2019-03-10T08:28:01.566Z,99915.31
2019-03-10T08:30:58.255Z,99903.89
2019-03-10T08:34:07.499Z,99913.31
2019-03-10T08:36:49.294Z,99903.76
2019-03-10T08:39:30.307Z,99900.79
2019-03-10T08:42:26.686Z,99895.66
2019-03-10T08:45:11.205Z,99896.20
2019-03-10T08:47:59.382Z,99901.80
2019-03-10T08:50:59.085Z,99890.77
2019-03-10T08:54:03.026Z,99887.37
2019-03-10T08:56:54.631Z,99884.17
2019-03-10T09:00:00.697Z,99882.16
2019-03-10T09:03:01.139Z,99866.13
2019-03-10T09:05:41.474Z,99871.11
2019-03-10T09:08:41.060Z,99860.31
2019-03-10T09:11:34.747Z,99853.03
2019-03-10T09:14:19.906Z,99844.91
2019-03-10T09:17:00.174Z,99828.30
2019-03-10T09:19:50.106Z,99831.59
2019-03-10T09:22:38.126Z,99826.73
2019-03-10T09:25:24.247Z,99826.80
2019-03-10T09:28:20.941Z,99809.52
2019-03-10T09:31:07.630Z,99806.69
2019-03-10T09:33:44.811Z,99806.48
2019-03-10T09:36:30.270Z,99797.95
2019-03-10T09:39:35.955Z,99789.46
2019-03-10T09:42:26.647Z,99799.22
2019-03-10T09:45:05.208Z,99794.79
2019-03-10T09:47:55.698Z,99792.40
2019-03-10T09:50:36.202Z,99787.58
2019-03-10T09:53:42.352Z,99781.73
2019-03-10T09:56:38.878Z,99781.09
2019-03-10T09:59:29.476Z,99776.20
2019-03-10T10:02:22.757Z,99778.88
2019-03-10T10:05:07.133Z,99777.64
2019-03-10T10:08:00.944Z,99772.30
2019-03-10T10:10:52.869Z,99796.83
2019-03-10T10:13:43.473Z,99778.67
2019-03-10T10:16:33.071Z,99793.91
2019-03-10T10:19:30.003Z,99781.59
2019-03-10T10:22:13.454Z,99784.06
2019-03-10T10:25:04.270Z,99780.60
2019-03-10T10:28:13.511Z,99774.77
2019-03-10T10:31:13.997Z,99782.45
2019-03-10T10:34:14.228Z,99780.77
2019-03-10T10:37:05.234Z,99775.88
2019-03-10T10:39:51.619Z,99766.37
2019-03-10T10:42:40.768Z,99774.91
2019-03-10T10:45:30.382Z,99767.00
2019-03-10T10:48:20.750Z,99752.63
2019-03-10T10:51:18.270Z,99749.37
2019-03-10T10:54:12.362Z,99747.83
2019-03-10T10:57:11.952Z,99750.63
2019-03-10T11:00:05.599Z,99747.88
2019-03-10T11:02:55.512Z,99735.33
2019-03-10T11:05:33.063Z,99740.82
2019-03-10T11:08:29.610Z,99724.80
2019-03-10T11:11:13.184Z,99733.13
2019-03-10T11:14:02.481Z,99724.75
2019-03-10T11:16:53.185Z,99722.72
2019-03-10T11:19:31.837Z,99708.06
2019-03-10T11:22:12.320Z,99706.09
2019-03-10T11:25:21.242Z,99705.68
2019-03-10T11:28:18.370Z,99692.70
2019-03-10T11:31:00.176Z,99681.72
2019-03-10T11:33:56.705Z,99680.10
2019-03-10T11:36:50.614Z,99687.02
2019-03-10T11:39:39.186Z,99671.13
2019-03-10T11:42:38.817Z,99666.13
2019-03-10T11:45:27.938Z,99654.84
2019-03-10T11:48:18.632Z,99644.37
2019-03-10T11:51:27.260Z,99649.55
2019-03-10T11:54:07.087Z,99643.81
2019-03-10T11:56:55.378Z,99637.25
2019-03-10T11:59:30.867Z,99636.02
2019-03-10T12:02:18.625Z,99643.78
2019-03-10T12:05:09.343Z,99634.45
2019-03-10T12:07:58.066Z,99631.79
2019-03-10T12:10:31.008Z,99620.98
2019-03-10T12:13:03.382Z,99621.48
2019-03-10T12:15:36.663Z,99616.86
2019-03-10T12:18:08.669Z,99604.25
2019-03-10T12:20:40.967Z,99604.92
2019-03-10T12:23:12.989Z,99602.95
2019-03-10T12:25:45.844Z,99605.91
2019-03-10T12:28:17.685Z,99588.54
2019-03-10T12:30:49.351Z,99579.49
2019-03-10T12:33:20.945Z,99573.97
2019-03-10T12:35:52.642Z,99569.11
2019-03-10T12:38:24.244Z,99559.53
2019-03-10T12:40:56.825Z,99550.79
2019-03-10T12:43:28.667Z,99538.66
2019-03-10T12:46:00.287Z,99531.94
2019-03-10T12:48:31.968Z,99522.10
2019-03-10T12:51:03.588Z,99513.17
2019-03-10T12:53:35.252Z,99515.86
2019-03-10T12:56:06.880Z,99501.30
2019-03-10T12:58:38.537Z,99508.93
2019-03-10T13:01:10.160Z,99499.05
2019-03-10T13:03:41.853Z,99496.22
2019-03-10T13:06:13.586Z,99500.88
2019-03-10T13:08:45.708Z,99491.41
2019-03-10T13:11:17.414Z,99482.91
2019-03-10T13:13:49.064Z,99474.53
2019-03-10T13:16:20.694Z,99477.44
2019-03-10T13:18:52.284Z,99480.31
2019-03-10T13:21:26.000Z,99481.28
2019-03-10T13:23:57.209Z,99474.33
2019-03-10T13:26:28.797Z,99488.89
2019-03-10T13:29:00.407Z,99480.66
2019-03-10T13:31:32.114Z,99481.17
2019-03-10T13:34:03.700Z,99481.73
2019-03-10T13:36:35.326Z,99480.95
2019-03-10T13:39:07.752Z,99480.23
2019-03-10T13:41:40.943Z,99476.78
2019-03-10T13:44:12.571Z,99468.83
2019-03-10T13:46:44.319Z,99469.71
2019-03-10T13:49:16.044Z,99470.89
2019-03-10T13:51:47.786Z,99459.08
2019-03-10T13:54:19.699Z,99454.19
2019-03-10T13:56:51.296Z,99444.39
2019-03-10T13:59:22.880Z,99442.84
2019-03-10T14:01:54.516Z,99434.66
2019-03-10T14:04:26.113Z,99422.80
2019-03-10T14:06:57.740Z,99415.68
2019-03-10T14:09:29.342Z,99407.86
2019-03-10T14:12:00.965Z,99401.89
2019-03-10T14:14:33.541Z,99396.27
2019-03-10T14:17:05.168Z,99384.41
2019-03-10T14:19:36.771Z,99379.22
2019-03-10T14:22:08.455Z,99379.33
2019-03-10T14:24:42.815Z,99373.30
2019-03-10T14:27:14.442Z,99367.95
2019-03-10T14:29:46.049Z,99362.33
2019-03-10T14:32:17.793Z,99368.50
2019-03-10T14:34:49.446Z,99365.10
2019-03-10T14:37:21.057Z,99356.46
2019-03-10T14:39:52.742Z,99357.84
2019-03-10T14:42:24.340Z,99357.33
2019-03-10T14:44:55.947Z,99347.14
2019-03-10T14:47:27.572Z,99336.73
2019-03-10T14:50:00.389Z,99335.45
2019-03-10T14:52:32.280Z,99336.64
2019-03-10T14:55:03.912Z,99329.94
2019-03-10T14:57:35.575Z,99317.42
2019-03-10T15:00:08.940Z,99320.77
2019-03-10T15:02:40.607Z,99314.83
2019-03-10T15:05:12.346Z,99300.73
2019-03-10T15:07:44.159Z,99288.16
2019-03-10T15:10:16.166Z,99287.44
2019-03-10T15:12:47.814Z,99273.36
2019-03-10T15:15:22.847Z,99272.48
2019-03-10T15:17:53.865Z,99261.93
2019-03-10T15:20:25.525Z,99261.72
2019-03-10T15:22:57.287Z,99261.53
2019-03-10T15:25:28.976Z,99245.25
2019-03-10T15:28:02.710Z,99247.95
2019-03-10T15:30:35.983Z,99239.19
2019-03-10T15:33:07.887Z,99239.71
2019-03-10T15:35:40.778Z,99234.09
2019-03-10T15:38:13.365Z,99225.61
2019-03-10T15:40:45.209Z,99230.60
2019-03-10T15:43:20.006Z,99221.69
2019-03-10T15:45:52.132Z,99223.39
2019-03-10T15:48:23.800Z,99218.48
2019-03-10T15:50:55.611Z,99209.13
2019-03-10T15:53:27.782Z,99209.88
2019-03-10T15:55:59.811Z,99200.34
2019-03-10T15:58:32.410Z,99190.43
2019-03-10T16:01:04.962Z,99190.91
2019-03-10T16:03:36.876Z,99180.20
2019-03-10T16:06:09.013Z,99176.77
2019-03-10T16:08:41.356Z,99168.05
2019-03-10T16:11:13.123Z,99163.43
2019-03-10T16:13:45.378Z,99152.93
2019-03-10T16:16:17.087Z,99148.23
2019-03-10T16:18:50.969Z,99158.61
2019-03-10T16:21:22.559Z,99146.56
2019-03-10T16:23:54.755Z,99138.21
2019-03-10T16:26:26.453Z,99133.95
2019-03-10T16:28:58.162Z,99127.15
2019-03-10T16:31:29.760Z,99126.64
2019-03-10T16:34:01.440Z,99128.64
2019-03-10T16:36:33.044Z,99123.11
2019-03-10T16:39:05.049Z,99127.42
2019-03-10T16:41:37.999Z,99125.91
2019-03-10T16:44:09.657Z,99133.67
2019-03-10T16:46:41.453Z,99124.66
2019-03-10T16:49:13.104Z,99125.70
2019-03-10T16:51:44.695Z,99120.25
2019-03-10T16:54:16.476Z,99114.19
2019-03-10T16:56:49.317Z,99108.89
2019-03-10T16:59:21.002Z,99103.69
2019-03-10T17:01:52.824Z,99100.75
2019-03-10T17:04:24.465Z,99103.06
2019-03-10T17:06:56.012Z,99090.12
2019-03-10T17:09:28.875Z,99086.02
2019-03-10T17:12:00.500Z,99080.02
2019-03-10T17:14:32.320Z,99081.47
2019-03-10T17:17:03.937Z,99080.80
2019-03-10T17:19:35.731Z,99078.54
2019-03-10T17:22:07.341Z,99088.98
2019-03-10T17:24:39.042Z,99075.15
2019-03-10T17:27:10.644Z,99060.97
2019-03-10T17:29:42.827Z,99050.95
2019-03-10T17:32:14.525Z,99056.61
2019-03-10T17:34:48.780Z,99056.77
2019-03-10T17:37:20.765Z,99052.70
2019-03-10T17:39:52.437Z,99055.59
2019-03-10T17:42:24.059Z,99051.98
2019-03-10T17:44:56.391Z,99050.05
2019-03-10T17:47:28.372Z,99048.45
2019-03-10T17:50:00.489Z,99053.53
2019-03-10T17:52:32.221Z,99051.53
2019-03-10T17:55:04.022Z,99050.09
2019-03-10T17:57:35.692Z,99046.48
2019-03-10T18:00:08.144Z,99037.76
2019-03-10T18:02:39.817Z,99028.30
2019-03-10T18:05:11.438Z,99027.23
2019-03-10T18:07:43.059Z,99015.30
2019-03-10T18:10:14.693Z,99002.55
2019-03-10T18:12:47.756Z,99001.42
2019-03-10T18:15:19.495Z,98993.59
2019-03-10T18:17:51.087Z,98999.70
2019-03-10T18:20:22.712Z,98998.83
2019-03-10T18:22:54.396Z,98986.59
2019-03-10T18:25:25.995Z,98978.93
2019-03-10T18:27:57.672Z,98962.93
2019-03-10T18:30:29.369Z,98954.11
2019-03-10T18:33:01.029Z,98949.73
2019-03-10T18:35:32.727Z,98931.40
2019-03-10T18:38:04.386Z,98926.58
2019-03-10T18:40:36.161Z,98927.09
2019-03-10T18:43:07.816Z,98911.05
2019-03-10T18:45:39.491Z,98901.06
2019-03-10T18:48:11.173Z,98903.45
2019-03-10T18:50:43.289Z,98902.35
2019-03-10T18:53:14.967Z,98909.03
2019-03-10T18:55:48.451Z,98904.20
2019-03-10T18:58:20.768Z,98906.98
2019-03-10T19:00:52.432Z,98908.77
2019-03-10T19:03:24.153Z,98906.51
2019-03-10T19:05:55.829Z,98905.80
2019-03-10T19:08:27.446Z,98904.52
2019-03-10T19:10:59.506Z,98895.94
2019-03-10T19:13:31.195Z,98897.16
2019-03-10T19:16:02.809Z,98897.52
2019-03-10T19:18:34.478Z,98902.27
2019-03-10T19:21:06.137Z,98897.52
2019-03-10T19:23:37.927Z,98903.06
2019-03-10T19:26:11.315Z,98895.32
2019-03-10T19:28:42.967Z,98895.59
2019-03-10T19:31:14.680Z,98889.89
2019-03-10T19:33:46.639Z,98886.53
2019-03-10T19:36:18.313Z,98882.84
2019-03-10T19:38:49.991Z,98883.31
2019-03-10T19:41:21.670Z,98872.98
2019-03-10T19:43:53.446Z,98864.40
2019-03-10T19:46:25.157Z,98869.53
2019-03-10T19:48:56.809Z,98867.28
2019-03-10T19:51:28.417Z,98867.11
2019-03-10T19:54:00.086Z,98862.62
2019-03-10T19:56:31.968Z,98857.13
2019-03-10T19:59:03.651Z,98852.02
2019-03-10T20:01:35.333Z,98854.16
2019-03-10T20:04:07.006Z,98854.14
2019-03-10T20:06:38.677Z,98852.74
2019-03-10T20:09:10.491Z,98849.80
2019-03-10T20:11:42.590Z,98835.16
2019-03-10T20:14:14.259Z,98831.98
2019-03-10T20:16:45.927Z,98821.48
2019-03-10T20:19:17.600Z,98820.48
2019-03-10T20:21:49.519Z,98823.03
2019-03-10T20:24:22.616Z,98816.83
2019-03-10T20:26:54.302Z,98809.20
2019-03-10T20:29:25.981Z,98804.48
2019-03-10T20:31:57.705Z,98808.92
2019-03-10T20:34:29.382Z,98815.09
2019-03-10T20:37:01.054Z,98818.54
2019-03-10T20:39:32.703Z,98814.95
2019-03-10T20:42:05.419Z,98810.55
2019-03-10T20:44:37.366Z,98822.21
2019-03-10T20:47:09.058Z,98817.48
2019-03-10T20:49:40.709Z,98822.73
2019-03-10T20:52:12.389Z,98822.55
2019-03-10T20:54:44.060Z,98825.73
2019-03-10T20:57:15.912Z,98831.83
2019-03-10T20:59:47.805Z,98849.79
2019-03-10T21:02:19.715Z,98859.07
2019-03-10T21:04:51.379Z,98865.16
2019-03-10T21:07:23.073Z,98883.25
2019-03-10T21:09:54.680Z,98886.84
2019-03-10T21:12:26.370Z,98894.14
2019-03-10T21:14:58.035Z,98899.97
2019-03-10T21:17:29.719Z,98916.84
2019-03-10T21:20:01.401Z,98923.27
2019-03-10T21:22:33.084Z,98933.55
2019-03-10T21:25:05.226Z,98943.61
2019-03-10T21:27:38.460Z,98952.20
2019-03-10T21:30:16.061Z,98959.53
2019-03-10T21:32:47.825Z,98956.72
2019-03-10T21:35:19.718Z,98966.91
2019-03-10T21:37:51.322Z,98971.00
2019-03-10T21:40:23.685Z,98981.34
2019-03-10T21:42:55.293Z,98981.79
2019-03-10T21:45:26.908Z,98985.25
2019-03-10T21:47:58.588Z,98986.80
2019-03-10T21:50:30.270Z,98973.95
2019-03-10T21:53:01.939Z,98989.48
2019-03-10T21:55:33.587Z,98986.91
2019-03-10T21:58:05.574Z,98994.33
2019-03-10T22:00:37.220Z,98996.56
2019-03-10T22:03:08.896Z,99001.93
2019-03-10T22:05:40.789Z,99017.27
2019-03-10T22:08:12.496Z,99022.12
2019-03-10T22:10:44.276Z,99034.06
2019-03-10T22:13:16.125Z,99046.91
2019-03-10T22:15:48.860Z,99053.15
2019-03-10T22:18:20.615Z,99072.67
2019-03-10T22:20:52.268Z,99084.30
2019-03-10T22:23:23.930Z,99100.83
2019-03-10T22:25:56.558Z,99113.67
2019-03-10T22:28:28.205Z,99130.06
2019-03-10T22:30:59.864Z,99147.84
2019-03-10T22:33:31.446Z,99161.36
2019-03-10T22:36:03.032Z,99183.97
2019-03-10T22:38:34.670Z,99199.98
2019-03-10T22:41:06.264Z,99216.20
2019-03-10T22:43:37.976Z,99220.95
2019-03-10T22:46:09.620Z,99238.59
2019-03-10T22:48:41.692Z,99251.69
2019-03-10T22:51:13.338Z,99267.98
2019-03-10T22:53:44.967Z,99280.38
2019-03-10T22:56:16.929Z,99292.31
2019-03-10T22:58:48.537Z,99298.97
2019-03-10T23:01:20.192Z,99310.69
2019-03-10T23:03:51.849Z,99321.95
2019-03-10T23:06:23.504Z,99338.55
2019-03-10T23:08:55.114Z,99350.93
2019-03-10T23:11:26.713Z,99360.34
2019-03-10T23:13:58.319Z,99376.89
2019-03-10T23:16:29.962Z,99395.14
2019-03-10T23:19:01.576Z,99410.31
2019-03-10T23:21:33.239Z,99414.02
2019-03-10T23:24:04.855Z,99443.73
2019-03-10T23:26:36.536Z,99454.34
2019-03-10T23:29:08.270Z,99453.69
2019-03-10T23:31:39.923Z,99465.09
2019-03-10T23:34:11.686Z,99472.84
2019-03-10T23:36:43.332Z,99480.90
2019-03-10T23:39:15.043Z,99481.42
2019-03-10T23:41:46.929Z,99495.34
2019-03-10T23:44:18.847Z,99507.31
2019-03-10T23:46:50.722Z,99514.71
2019-03-10T23:49:22.653Z,99521.66
2019-03-10T23:51:54.260Z,99534.46
2019-03-10T23:54:25.847Z,99537.70
2019-03-10T23:56:57.459Z,99572.13
2019-03-10T23:59:29.066Z,99568.89
